createdAt,value
2022-07-26T00:00:33.026Z,997.7287858440001
2022-07-26T00:01:32.525Z,997.6271944800001
2022-07-26T00:02:33.871Z,997.7287858440001
2022-07-26T00:03:32.425Z,997.830377208
2022-07-26T00:04:32.479Z,997.9319685720001
2022-07-26T00:05:32.426Z,997.4240117520001
2022-07-26T00:06:33.109Z,997.4240117520001
2022-07-26T00:07:36.535Z,997.6271944800001
2022-07-26T00:08:32.401Z,997.7287858440001
2022-07-26T00:09:32.486Z,997.6271944800001
2022-07-26T00:10:32.422Z,997.525603116
2022-07-26T00:11:32.488Z,997.4240117520001
2022-07-26T00:12:32.433Z,997.525603116
2022-07-26T00:13:32.549Z,997.4240117520001
2022-07-26T00:14:32.437Z,997.220829024
2022-07-26T00:15:32.410Z,997.4240117520001
2022-07-26T00:16:32.535Z,997.525603116
2022-07-26T00:17:32.466Z,997.4240117520001
2022-07-26T00:18:32.408Z,997.525603116
2022-07-26T00:19:32.395Z,997.3224203880001
2022-07-26T00:20:32.412Z,997.4240117520001
2022-07-26T00:21:32.449Z,997.525603116
2022-07-26T00:22:32.418Z,997.4240117520001
2022-07-26T00:23:32.449Z,997.6271944800001
2022-07-26T00:24:35.404Z,997.3224203880001
2022-07-26T00:25:33.047Z,997.3224203880001
2022-07-26T00:26:32.476Z,997.525603116
2022-07-26T00:27:32.504Z,997.4240117520001
2022-07-26T00:28:34.275Z,997.4240117520001
2022-07-26T00:29:32.402Z,997.3224203880001
2022-07-26T00:30:32.444Z,997.4240117520001
2022-07-26T00:31:32.454Z,997.4240117520001
2022-07-26T00:32:32.423Z,997.4240117520001
2022-07-26T00:33:32.666Z,997.3224203880001
2022-07-26T00:34:32.382Z,997.3224203880001
2022-07-26T00:35:32.404Z,997.3224203880001
2022-07-26T00:36:32.389Z,997.4240117520001
2022-07-26T00:37:32.655Z,997.4240117520001
2022-07-26T00:38:33.202Z,997.525603116
2022-07-26T00:39:32.389Z,997.3224203880001
2022-07-26T00:40:32.376Z,997.220829024
2022-07-26T00:41:32.393Z,997.3224203880001
2022-07-26T00:42:32.477Z,997.4240117520001
2022-07-26T00:43:32.394Z,997.220829024
2022-07-26T00:44:32.960Z,997.220829024
2022-07-26T00:45:32.376Z,997.220829024
2022-07-26T00:46:32.552Z,997.11923766
2022-07-26T00:47:32.373Z,997.11923766
2022-07-26T00:48:32.558Z,997.4240117520001
2022-07-26T00:49:32.333Z,997.4240117520001
2022-07-26T00:50:32.485Z,997.220829024
2022-07-26T00:51:32.394Z,997.3224203880001
2022-07-26T00:52:32.426Z,997.3224203880001
2022-07-26T00:53:32.386Z,997.3224203880001
2022-07-26T00:54:32.795Z,997.4240117520001
2022-07-26T00:55:32.393Z,997.220829024
2022-07-26T00:56:32.349Z,997.0176462960001
2022-07-26T00:57:32.412Z,997.220829024
2022-07-26T00:58:32.390Z,997.3224203880001
2022-07-26T00:59:32.389Z,997.3224203880001
2022-07-26T01:00:33.364Z,997.220829024
2022-07-26T01:01:32.551Z,997.220829024
2022-07-26T01:02:32.472Z,997.3224203880001
2022-07-26T01:03:39.550Z,997.11923766
2022-07-26T01:04:32.402Z,997.220829024
2022-07-26T01:05:32.422Z,997.11923766
2022-07-26T01:06:32.397Z,996.916054932
2022-07-26T01:07:33.087Z,997.0176462960001
2022-07-26T01:08:32.391Z,996.916054932
2022-07-26T01:09:33.201Z,997.11923766
2022-07-26T01:10:32.409Z,997.11923766
2022-07-26T01:11:32.394Z,996.814463568
2022-07-26T01:12:32.633Z,996.814463568
2022-07-26T01:13:35.246Z,996.916054932
2022-07-26T01:14:32.933Z,996.916054932
2022-07-26T01:15:32.400Z,996.916054932
2022-07-26T01:16:32.995Z,996.814463568
2022-07-26T01:17:32.621Z,996.814463568
2022-07-26T01:18:33.433Z,996.814463568
2022-07-26T01:19:32.395Z,996.7128722040001
2022-07-26T01:20:32.521Z,996.7128722040001
2022-07-26T01:21:32.421Z,996.7128722040001
2022-07-26T01:22:32.434Z,996.814463568
2022-07-26T01:23:32.413Z,996.814463568
2022-07-26T01:24:32.389Z,996.61128084
2022-07-26T01:25:32.479Z,996.306506748
2022-07-26T01:26:32.498Z,996.61128084
2022-07-26T01:27:34.066Z,996.61128084
2022-07-26T01:28:32.413Z,996.509689476
2022-07-26T01:29:34.577Z,996.7128722040001
2022-07-26T01:30:32.445Z,996.7128722040001
2022-07-26T01:31:32.484Z,996.61128084
2022-07-26T01:32:32.423Z,996.61128084
2022-07-26T01:33:32.456Z,996.61128084
2022-07-26T01:34:32.428Z,996.509689476
2022-07-26T01:35:32.364Z,996.509689476
2022-07-26T01:36:34.166Z,996.509689476
2022-07-26T01:37:32.368Z,996.61128084
2022-07-26T01:38:32.374Z,996.814463568
2022-07-26T01:39:32.382Z,996.61128084
2022-07-26T01:40:32.520Z,996.61128084
2022-07-26T01:41:37.906Z,996.4080981120001
2022-07-26T01:42:32.496Z,996.4080981120001
2022-07-26T01:43:32.478Z,996.61128084
2022-07-26T01:44:32.473Z,996.61128084
2022-07-26T01:45:32.612Z,996.7128722040001
2022-07-26T01:46:32.529Z,996.7128722040001
2022-07-26T01:47:32.483Z,996.509689476
2022-07-26T01:48:32.606Z,996.61128084
2022-07-26T01:49:32.371Z,996.306506748
2022-07-26T01:50:35.047Z,996.509689476
2022-07-26T01:51:32.432Z,996.4080981120001
2022-07-26T01:52:32.398Z,996.238779172
2022-07-26T01:53:32.415Z,996.61128084
2022-07-26T01:54:32.351Z,996.7128722040001
2022-07-26T01:55:32.371Z,996.509689476
2022-07-26T01:56:32.463Z,996.306506748
2022-07-26T01:57:32.380Z,996.4080981120001
2022-07-26T01:58:32.371Z,996.4080981120001
2022-07-26T01:59:32.366Z,996.306506748
2022-07-26T02:00:33.335Z,996.4080981120001
2022-07-26T02:01:39.290Z,996.509689476
2022-07-26T02:02:32.498Z,996.4080981120001
2022-07-26T02:03:32.550Z,996.306506748
2022-07-26T02:04:32.387Z,996.509689476
2022-07-26T02:05:32.374Z,996.61128084
2022-07-26T02:06:32.366Z,996.509689476
2022-07-26T02:07:32.485Z,996.4080981120001
2022-07-26T02:08:32.364Z,996.61128084
2022-07-26T02:09:38.112Z,996.509689476
2022-07-26T02:10:32.519Z,996.4080981120001
2022-07-26T02:11:32.379Z,996.4080981120001
2022-07-26T02:12:32.386Z,996.137187808
2022-07-26T02:13:32.395Z,996.306506748
2022-07-26T02:14:32.415Z,996.306506748
2022-07-26T02:15:32.497Z,996.509689476
2022-07-26T02:16:32.557Z,996.238779172
2022-07-26T02:17:32.346Z,996.509689476
2022-07-26T02:18:32.393Z,996.238779172
2022-07-26T02:19:32.381Z,996.238779172
2022-07-26T02:20:32.363Z,996.509689476
2022-07-26T02:21:32.360Z,996.238779172
2022-07-26T02:22:32.470Z,996.306506748
2022-07-26T02:23:32.417Z,996.306506748
2022-07-26T02:24:32.358Z,996.4080981120001
2022-07-26T02:25:32.327Z,996.306506748
2022-07-26T02:26:32.360Z,996.137187808
2022-07-26T02:27:32.365Z,996.306506748
2022-07-26T02:28:32.352Z,996.306506748
2022-07-26T02:29:32.343Z,996.306506748
2022-07-26T02:30:32.357Z,996.306506748
2022-07-26T02:31:32.617Z,996.137187808
2022-07-26T02:32:32.470Z,996.035596444
2022-07-26T02:33:32.391Z,996.238779172
2022-07-26T02:34:34.054Z,996.035596444
2022-07-26T02:35:32.386Z,996.035596444
2022-07-26T02:36:32.386Z,996.035596444
2022-07-26T02:37:32.362Z,996.137187808
2022-07-26T02:38:32.374Z,996.137187808
2022-07-26T02:39:32.339Z,996.035596444
2022-07-26T02:40:32.356Z,996.035596444
2022-07-26T02:41:32.368Z,996.238779172
2022-07-26T02:42:32.360Z,995.93400508
2022-07-26T02:43:32.422Z,995.93400508
2022-07-26T02:44:32.347Z,996.035596444
2022-07-26T02:45:32.370Z,996.035596444
2022-07-26T02:46:32.395Z,995.832413716
2022-07-26T02:47:32.360Z,996.035596444
2022-07-26T02:48:32.578Z,996.137187808
2022-07-26T02:49:32.450Z,996.137187808
2022-07-26T02:50:32.333Z,995.7308223519999
2022-07-26T02:51:32.376Z,995.93400508
2022-07-26T02:52:32.864Z,995.93400508
2022-07-26T02:53:32.359Z,995.7308223519999
2022-07-26T02:54:32.417Z,995.7308223519999
2022-07-26T02:55:33.508Z,995.7308223519999
2022-07-26T02:56:34.097Z,995.527639624
2022-07-26T02:57:34.124Z,995.7308223519999
2022-07-26T02:58:32.355Z,995.832413716
2022-07-26T02:59:32.380Z,995.7308223519999
2022-07-26T03:00:34.512Z,995.832413716
2022-07-26T03:01:32.510Z,995.7308223519999
2022-07-26T03:02:32.485Z,995.6292309879999
2022-07-26T03:03:32.381Z,995.6292309879999
2022-07-26T03:04:32.372Z,995.832413716
2022-07-26T03:05:32.395Z,995.527639624
2022-07-26T03:06:32.470Z,995.6292309879999
2022-07-26T03:07:32.550Z,995.6292309879999
2022-07-26T03:08:32.385Z,995.527639624
2022-07-26T03:09:32.347Z,995.832413716
2022-07-26T03:10:32.420Z,995.7308223519999
2022-07-26T03:11:32.490Z,995.527639624
2022-07-26T03:12:32.539Z,995.6292309879999
2022-07-26T03:13:32.360Z,995.527639624
2022-07-26T03:14:32.586Z,995.6292309879999
2022-07-26T03:15:33.486Z,995.527639624
2022-07-26T03:16:33.870Z,995.527639624
2022-07-26T03:17:32.497Z,995.6292309879999
2022-07-26T03:18:32.493Z,995.527639624
2022-07-26T03:19:32.522Z,995.527639624
2022-07-26T03:20:32.471Z,995.6292309879999
2022-07-26T03:21:32.491Z,995.527639624
2022-07-26T03:22:32.370Z,995.527639624
2022-07-26T03:23:32.426Z,995.527639624
2022-07-26T03:24:32.510Z,995.4260482599999
2022-07-26T03:25:32.599Z,995.4260482599999
2022-07-26T03:26:32.512Z,995.6292309879999
2022-07-26T03:27:32.464Z,995.6292309879999
2022-07-26T03:28:33.810Z,995.527639624
2022-07-26T03:29:32.374Z,995.527639624
2022-07-26T03:30:32.580Z,995.4260482599999
2022-07-26T03:31:32.457Z,995.4260482599999
2022-07-26T03:32:33.981Z,995.527639624
2022-07-26T03:33:32.429Z,995.527639624
2022-07-26T03:34:32.353Z,995.4260482599999
2022-07-26T03:35:36.536Z,995.3244568959999
2022-07-26T03:36:33.980Z,995.3244568959999
2022-07-26T03:37:45.079Z,995.4260482599999
2022-07-26T03:38:32.451Z,995.3244568959999
2022-07-26T03:39:32.349Z,995.3244568959999
2022-07-26T03:40:33.087Z,995.1212741679999
2022-07-26T03:41:32.489Z,995.3244568959999
2022-07-26T03:42:32.534Z,995.4260482599999
2022-07-26T03:43:36.257Z,995.0196828039999
2022-07-26T03:44:32.334Z,994.91809144
2022-07-26T03:45:32.365Z,995.222865532
2022-07-26T03:46:32.477Z,994.91809144
2022-07-26T03:47:32.529Z,994.7149087119999
2022-07-26T03:48:32.485Z,994.91809144
2022-07-26T03:49:32.364Z,994.91809144
2022-07-26T03:50:33.223Z,994.91809144
2022-07-26T03:51:32.341Z,995.1212741679999
2022-07-26T03:52:32.350Z,995.222865532
2022-07-26T03:53:32.406Z,995.1212741679999
2022-07-26T03:54:32.369Z,995.222865532
2022-07-26T03:55:34.005Z,995.222865532
2022-07-26T03:56:32.365Z,994.8165000759999
2022-07-26T03:57:32.352Z,994.91809144
2022-07-26T03:58:32.362Z,995.1212741679999
2022-07-26T03:59:32.333Z,995.222865532
2022-07-26T04:00:32.382Z,994.91809144
2022-07-26T04:01:32.551Z,995.1212741679999
2022-07-26T04:02:32.684Z,995.0196828039999
2022-07-26T04:03:32.358Z,994.91809144
2022-07-26T04:04:32.333Z,995.0196828039999
2022-07-26T04:05:32.354Z,994.8165000759999
2022-07-26T04:06:32.359Z,994.8165000759999
2022-07-26T04:07:32.353Z,995.0196828039999
2022-07-26T04:08:32.331Z,994.5117259839999
2022-07-26T04:09:32.369Z,994.8165000759999
2022-07-26T04:10:32.879Z,994.613317348
2022-07-26T04:11:32.541Z,994.91809144
2022-07-26T04:12:32.355Z,994.8165000759999
2022-07-26T04:13:32.344Z,994.7149087119999
2022-07-26T04:14:32.367Z,994.8165000759999
2022-07-26T04:15:32.365Z,994.613317348
2022-07-26T04:16:32.403Z,994.8165000759999
2022-07-26T04:17:32.370Z,994.8165000759999
2022-07-26T04:18:32.356Z,994.7149087119999
2022-07-26T04:19:32.354Z,994.7149087119999
2022-07-26T04:20:32.352Z,994.7149087119999
2022-07-26T04:21:32.375Z,994.91809144
2022-07-26T04:22:32.355Z,994.613317348
2022-07-26T04:23:32.499Z,994.613317348
2022-07-26T04:24:32.335Z,994.7149087119999
2022-07-26T04:25:40.686Z,994.8165000759999
2022-07-26T04:26:32.374Z,994.8165000759999
2022-07-26T04:27:32.347Z,994.91809144
2022-07-26T04:28:32.362Z,994.7149087119999
2022-07-26T04:29:32.349Z,994.613317348
2022-07-26T04:30:32.405Z,994.8165000759999
2022-07-26T04:31:36.293Z,994.8165000759999
2022-07-26T04:32:32.507Z,994.7149087119999
2022-07-26T04:33:32.453Z,994.613317348
2022-07-26T04:34:32.357Z,994.8165000759999
2022-07-26T04:35:32.370Z,994.613317348
2022-07-26T04:36:32.334Z,994.613317348
2022-07-26T04:37:32.350Z,994.613317348
2022-07-26T04:38:32.369Z,994.7149087119999
2022-07-26T04:39:32.349Z,994.613317348
2022-07-26T04:40:33.210Z,994.7149087119999
2022-07-26T04:41:32.437Z,994.613317348
2022-07-26T04:42:34.293Z,994.5117259839999
2022-07-26T04:43:32.324Z,994.5117259839999
2022-07-26T04:44:32.343Z,994.5117259839999
2022-07-26T04:45:32.380Z,994.5117259839999
2022-07-26T04:46:32.544Z,994.7149087119999
2022-07-26T04:47:32.353Z,994.5117259839999
2022-07-26T04:48:32.481Z,994.5117259839999
2022-07-26T04:49:32.419Z,994.4101346199999
2022-07-26T04:50:32.566Z,994.4101346199999
2022-07-26T04:51:32.476Z,994.4101346199999
2022-07-26T04:52:32.679Z,994.308543256
2022-07-26T04:53:33.119Z,994.4101346199999
2022-07-26T04:54:32.490Z,994.4101346199999
2022-07-26T04:55:33.973Z,994.308543256
2022-07-26T04:56:32.333Z,994.308543256
2022-07-26T04:57:32.354Z,994.308543256
2022-07-26T04:58:32.358Z,994.308543256
2022-07-26T04:59:32.543Z,994.308543256
2022-07-26T05:00:32.345Z,994.2069518920001
2022-07-26T05:01:32.399Z,994.2069518920001
2022-07-26T05:02:32.436Z,994.2069518920001
2022-07-26T05:03:32.357Z,994.308543256
2022-07-26T05:04:32.366Z,994.037632952
2022-07-26T05:05:32.344Z,994.308543256
2022-07-26T05:06:32.332Z,994.308543256
2022-07-26T05:07:32.347Z,994.2069518920001
2022-07-26T05:08:32.379Z,993.936041588
2022-07-26T05:09:32.331Z,994.1392243160001
2022-07-26T05:10:32.438Z,994.037632952
2022-07-26T05:11:32.324Z,994.2069518920001
2022-07-26T05:12:32.357Z,994.2069518920001
2022-07-26T05:13:32.372Z,994.037632952
2022-07-26T05:14:32.370Z,994.308543256
2022-07-26T05:15:35.257Z,993.936041588
2022-07-26T05:16:34.895Z,994.037632952
2022-07-26T05:17:32.346Z,994.1392243160001
2022-07-26T05:18:45.631Z,994.1392243160001
2022-07-26T05:19:32.398Z,994.1392243160001
2022-07-26T05:20:34.101Z,994.1392243160001
2022-07-26T05:21:32.323Z,994.037632952
2022-07-26T05:22:32.334Z,994.1392243160001
2022-07-26T05:23:32.342Z,994.2069518920001
2022-07-26T05:24:32.357Z,994.037632952
2022-07-26T05:25:32.370Z,993.936041588
2022-07-26T05:26:32.342Z,994.037632952
2022-07-26T05:27:32.351Z,994.1392243160001
2022-07-26T05:28:32.340Z,994.2069518920001
2022-07-26T05:29:32.399Z,993.936041588
2022-07-26T05:30:34.978Z,993.936041588
2022-07-26T05:31:32.365Z,994.2069518920001
2022-07-26T05:32:33.192Z,994.1392243160001
2022-07-26T05:33:32.350Z,994.308543256
2022-07-26T05:34:32.344Z,994.037632952
2022-07-26T05:35:32.350Z,994.1392243160001
2022-07-26T05:36:32.356Z,994.1392243160001
2022-07-26T05:37:32.328Z,994.1392243160001
2022-07-26T05:38:32.337Z,994.2069518920001
2022-07-26T05:39:32.386Z,994.037632952
2022-07-26T05:40:32.487Z,994.037632952
2022-07-26T05:41:32.364Z,994.037632952
2022-07-26T05:42:32.634Z,994.037632952
2022-07-26T05:43:40.978Z,993.936041588
2022-07-26T05:44:32.616Z,993.8344502239999
2022-07-26T05:45:32.461Z,994.037632952
2022-07-26T05:46:34.511Z,993.936041588
2022-07-26T05:47:32.371Z,993.936041588
2022-07-26T05:48:32.380Z,994.037632952
2022-07-26T05:49:39.867Z,994.037632952
2022-07-26T05:50:32.329Z,994.037632952
2022-07-26T05:51:34.295Z,994.2069518920001
2022-07-26T05:52:32.473Z,994.1392243160001
2022-07-26T05:53:32.401Z,994.2069518920001
2022-07-26T05:54:32.343Z,993.936041588
2022-07-26T05:55:32.364Z,994.037632952
2022-07-26T05:56:32.331Z,994.1392243160001
2022-07-26T05:57:32.352Z,994.2069518920001
2022-07-26T05:58:32.331Z,994.1392243160001
2022-07-26T05:59:32.463Z,994.037632952
2022-07-26T06:00:32.349Z,994.4101346199999
2022-07-26T06:01:33.987Z,994.037632952
2022-07-26T06:02:32.441Z,994.2069518920001
2022-07-26T06:03:32.374Z,994.1392243160001
2022-07-26T06:04:32.722Z,994.1392243160001
2022-07-26T06:05:32.339Z,994.1392243160001
2022-07-26T06:06:34.677Z,993.936041588
2022-07-26T06:07:32.429Z,994.1392243160001
2022-07-26T06:08:32.447Z,994.308543256
2022-07-26T06:09:32.380Z,994.2069518920001
2022-07-26T06:10:33.289Z,994.1392243160001
2022-07-26T06:11:32.351Z,994.1392243160001
2022-07-26T06:12:32.345Z,994.2069518920001
2022-07-26T06:13:32.336Z,994.2069518920001
2022-07-26T06:14:32.339Z,994.308543256
2022-07-26T06:15:32.361Z,994.308543256
2022-07-26T06:16:32.353Z,994.2069518920001
2022-07-26T06:17:32.344Z,994.4101346199999
2022-07-26T06:18:32.596Z,993.936041588
2022-07-26T06:19:33.277Z,994.2069518920001
2022-07-26T06:20:32.345Z,994.2069518920001
2022-07-26T06:21:32.321Z,994.308543256
2022-07-26T06:22:32.323Z,994.2069518920001
2022-07-26T06:23:34.556Z,994.1392243160001
2022-07-26T06:24:32.386Z,994.2069518920001
2022-07-26T06:25:32.350Z,994.4101346199999
2022-07-26T06:26:32.457Z,994.4101346199999
2022-07-26T06:27:34.017Z,994.308543256
2022-07-26T06:28:32.343Z,994.308543256
2022-07-26T06:29:32.707Z,994.4101346199999
2022-07-26T06:30:32.466Z,994.5117259839999
2022-07-26T06:31:32.452Z,994.308543256
2022-07-26T06:32:32.351Z,994.308543256
2022-07-26T06:33:32.417Z,994.4101346199999
2022-07-26T06:34:32.350Z,994.5117259839999
2022-07-26T06:35:32.330Z,994.5117259839999
2022-07-26T06:36:32.352Z,994.4101346199999
2022-07-26T06:37:32.374Z,994.5117259839999
2022-07-26T06:38:32.399Z,994.4101346199999
2022-07-26T06:39:32.442Z,994.4101346199999
2022-07-26T06:40:32.354Z,994.5117259839999
2022-07-26T06:41:32.466Z,994.308543256
2022-07-26T06:42:33.824Z,994.5117259839999
2022-07-26T06:43:32.371Z,994.5117259839999
2022-07-26T06:44:32.304Z,994.613317348
2022-07-26T06:45:32.375Z,994.4101346199999
2022-07-26T06:46:32.360Z,994.4101346199999
2022-07-26T06:47:32.456Z,994.5117259839999
2022-07-26T06:48:32.407Z,994.7149087119999
2022-07-26T06:49:32.473Z,994.613317348
2022-07-26T06:50:33.098Z,994.7149087119999
2022-07-26T06:51:32.351Z,994.5117259839999
2022-07-26T06:52:32.348Z,994.613317348
2022-07-26T06:53:32.468Z,994.7149087119999
2022-07-26T06:54:32.326Z,994.613317348
2022-07-26T06:55:32.597Z,994.7149087119999
2022-07-26T06:56:32.335Z,994.613317348
2022-07-26T06:57:32.401Z,994.613317348
2022-07-26T06:58:32.361Z,994.5117259839999
2022-07-26T06:59:32.463Z,994.5117259839999
2022-07-26T07:00:32.368Z,994.5117259839999
2022-07-26T07:01:58.433Z,994.8165000759999
2022-07-26T07:02:32.521Z,994.5117259839999
2022-07-26T07:03:32.329Z,994.5117259839999
2022-07-26T07:04:32.525Z,994.5117259839999
2022-07-26T07:05:32.336Z,994.5117259839999
2022-07-26T07:06:32.328Z,994.613317348
2022-07-26T07:07:32.337Z,994.2069518920001
2022-07-26T07:08:32.330Z,994.5117259839999
2022-07-26T07:09:32.301Z,994.7149087119999
2022-07-26T07:10:32.556Z,994.613317348
2022-07-26T07:11:32.432Z,994.5117259839999
2022-07-26T07:12:32.524Z,994.613317348
2022-07-26T07:13:32.409Z,994.91809144
2022-07-26T07:14:32.425Z,994.613317348
2022-07-26T07:15:32.353Z,994.5117259839999
2022-07-26T07:16:34.070Z,994.613317348
2022-07-26T07:17:32.358Z,994.613317348
2022-07-26T07:18:32.378Z,994.7149087119999
2022-07-26T07:19:32.337Z,994.613317348
2022-07-26T07:20:32.341Z,994.8165000759999
2022-07-26T07:21:32.450Z,994.5117259839999
2022-07-26T07:22:32.322Z,994.613317348
2022-07-26T07:23:32.322Z,994.8165000759999
2022-07-26T07:24:32.334Z,994.8165000759999
2022-07-26T07:25:33.305Z,994.8165000759999
2022-07-26T07:26:32.315Z,994.7149087119999
2022-07-26T07:27:32.316Z,994.7149087119999
2022-07-26T07:28:32.525Z,994.613317348
2022-07-26T07:29:32.421Z,994.7149087119999
2022-07-26T07:30:32.341Z,994.8165000759999
2022-07-26T07:31:47.869Z,994.8165000759999
2022-07-26T07:32:33.156Z,994.7149087119999
2022-07-26T07:33:36.692Z,994.8165000759999
2022-07-26T07:34:32.374Z,994.7149087119999
2022-07-26T07:35:32.910Z,994.7149087119999
2022-07-26T07:36:32.311Z,994.5117259839999
2022-07-26T07:37:52.321Z,994.8165000759999
2022-07-26T07:38:34.658Z,994.8165000759999
2022-07-26T07:39:34.524Z,994.8165000759999
2022-07-26T07:40:34.376Z,994.8165000759999
2022-07-26T07:41:32.336Z,994.7149087119999
2022-07-26T07:42:32.318Z,994.7149087119999
2022-07-26T07:43:32.325Z,994.613317348
2022-07-26T07:44:32.563Z,994.8165000759999
2022-07-26T07:45:32.553Z,994.8165000759999
2022-07-26T07:46:32.402Z,994.7149087119999
2022-07-26T07:47:32.343Z,994.8165000759999
2022-07-26T07:48:32.370Z,994.7149087119999
2022-07-26T07:49:32.476Z,994.91809144
2022-07-26T07:50:32.460Z,994.8165000759999
2022-07-26T07:51:32.313Z,994.8165000759999
2022-07-26T07:52:32.342Z,994.91809144
2022-07-26T07:53:32.375Z,994.8165000759999
2022-07-26T07:54:32.348Z,994.91809144
2022-07-26T07:55:41.532Z,994.8165000759999
2022-07-26T07:56:32.298Z,994.8165000759999
2022-07-26T07:57:32.457Z,994.8165000759999
2022-07-26T07:58:32.379Z,994.91809144
2022-07-26T07:59:32.319Z,994.91809144
2022-07-26T08:00:32.332Z,994.91809144
2022-07-26T08:01:39.917Z,994.8165000759999
2022-07-26T08:02:32.353Z,994.91809144
2022-07-26T08:03:38.533Z,994.8165000759999
2022-07-26T08:04:32.482Z,994.91809144
2022-07-26T08:05:32.518Z,995.0196828039999
2022-07-26T08:06:33.065Z,995.0196828039999
2022-07-26T08:07:36.401Z,994.91809144
2022-07-26T08:08:32.335Z,994.8165000759999
2022-07-26T08:09:33.804Z,995.0196828039999
2022-07-26T08:10:33.140Z,994.7149087119999
2022-07-26T08:11:32.332Z,995.0196828039999
2022-07-26T08:12:32.342Z,994.91809144
2022-07-26T08:13:32.319Z,994.91809144
2022-07-26T08:14:32.367Z,995.0196828039999
2022-07-26T08:15:32.339Z,994.8165000759999
2022-07-26T08:16:33.319Z,994.8165000759999
2022-07-26T08:17:32.433Z,995.1212741679999
2022-07-26T08:18:32.371Z,994.91809144
2022-07-26T08:19:41.847Z,995.1212741679999
2022-07-26T08:20:32.314Z,995.1212741679999
2022-07-26T08:21:32.410Z,995.0196828039999
2022-07-26T08:22:32.350Z,995.1212741679999
2022-07-26T08:23:32.335Z,994.91809144
2022-07-26T08:24:33.261Z,995.0196828039999
2022-07-26T08:25:32.343Z,995.1212741679999
2022-07-26T08:26:32.320Z,995.1212741679999
2022-07-26T08:27:40.474Z,995.1212741679999
2022-07-26T08:29:32.399Z,995.4260482599999
2022-07-26T08:30:32.489Z,995.222865532
2022-07-26T08:31:32.479Z,995.222865532
2022-07-26T08:32:32.587Z,995.3244568959999
2022-07-26T08:33:32.311Z,995.222865532
2022-07-26T08:34:32.348Z,995.3244568959999
2022-07-26T08:35:32.325Z,995.1212741679999
2022-07-26T08:36:33.215Z,995.1212741679999
2022-07-26T08:37:32.357Z,995.222865532
2022-07-26T08:38:32.314Z,995.3244568959999
2022-07-26T08:39:32.359Z,995.222865532
2022-07-26T08:40:32.352Z,995.222865532
2022-07-26T08:41:38.299Z,995.1212741679999
2022-07-26T08:42:40.395Z,995.222865532
2022-07-26T08:43:53.211Z,995.3244568959999
2022-07-26T08:44:48.489Z,995.1212741679999
2022-07-26T08:45:52.362Z,995.1212741679999
2022-07-26T08:46:56.934Z,995.3244568959999
2022-07-26T08:48:17.427Z,995.0196828039999
2022-07-26T08:49:04.657Z,995.3244568959999
2022-07-26T08:50:08.385Z,995.3244568959999
2022-07-26T08:51:12.380Z,995.3244568959999
2022-07-26T08:52:16.492Z,995.1212741679999
2022-07-26T08:53:20.399Z,995.3244568959999
2022-07-26T08:54:24.475Z,995.0196828039999
2022-07-26T08:55:32.379Z,995.1212741679999
2022-07-26T08:56:33.237Z,995.222865532
2022-07-26T08:57:32.373Z,995.1212741679999
2022-07-26T08:58:32.724Z,995.3244568959999
2022-07-26T08:59:32.400Z,995.222865532
2022-07-26T09:00:32.446Z,995.3244568959999
2022-07-26T09:01:32.414Z,995.0196828039999
2022-07-26T09:02:32.327Z,995.222865532
2022-07-26T09:03:33.712Z,995.3244568959999
2022-07-26T09:04:33.896Z,995.3244568959999
2022-07-26T09:05:32.328Z,995.222865532
2022-07-26T09:06:33.508Z,995.3244568959999
2022-07-26T09:07:32.334Z,995.222865532
2022-07-26T09:08:32.296Z,995.222865532
2022-07-26T09:09:32.405Z,995.3244568959999
2022-07-26T09:10:38.618Z,995.222865532
2022-07-26T09:11:32.304Z,995.3244568959999
2022-07-26T09:12:32.341Z,995.4260482599999
2022-07-26T09:13:32.352Z,995.4260482599999
2022-07-26T09:14:32.334Z,995.222865532
2022-07-26T09:15:32.324Z,995.222865532
2022-07-26T09:16:35.982Z,995.222865532
2022-07-26T09:17:32.323Z,995.4260482599999
2022-07-26T09:18:32.447Z,995.527639624
2022-07-26T09:19:32.349Z,995.3244568959999
2022-07-26T09:20:32.331Z,995.222865532
2022-07-26T09:21:33.496Z,995.3244568959999
2022-07-26T09:22:34.368Z,995.3244568959999
2022-07-26T09:23:32.295Z,995.3244568959999
2022-07-26T09:24:32.341Z,995.4260482599999
2022-07-26T09:25:32.412Z,995.3244568959999
2022-07-26T09:26:32.990Z,995.3244568959999
2022-07-26T09:27:32.332Z,995.4260482599999
2022-07-26T09:28:32.347Z,995.3244568959999
2022-07-26T09:29:32.395Z,995.4260482599999
2022-07-26T09:30:32.398Z,995.3244568959999
2022-07-26T09:31:32.381Z,995.3244568959999
2022-07-26T09:32:32.331Z,995.4260482599999
2022-07-26T09:33:32.320Z,995.3244568959999
2022-07-26T09:34:32.326Z,995.4260482599999
2022-07-26T09:35:49.951Z,995.4260482599999
2022-07-26T09:36:32.434Z,995.3244568959999
2022-07-26T09:37:32.433Z,995.4260482599999
2022-07-26T09:38:32.321Z,995.3244568959999
2022-07-26T09:39:33.894Z,995.527639624
2022-07-26T09:40:32.336Z,995.3244568959999
2022-07-26T09:41:32.383Z,995.3244568959999
2022-07-26T09:42:32.783Z,995.4260482599999
2022-07-26T09:43:32.340Z,995.3244568959999